Watertown, WI

8:41 PM CDT on September 25, 2016 (GMT -0500)
Watertown Municipal

Weather History for KRYV - October, 2014

Change the Weather History Date:

Friday, October 31, 2014

  Actual Average Record
Temperature  
Mean Temperature 37 °F -  
Max Temperature 42 °F 56 °F 78 °F (1950)
Min Temperature 32 °F 38 °F 15 °F (1925)
Degree Days  
Heating Degree Days 28    
Moisture  
Dew Point 24 °F    
Average Humidity 66    
Maximum Humidity 100    
Minimum Humidity 46    
Precipitation  
Precipitation 0.02 in - - ()
Sea Level Pressure  
Sea Level Pressure 30.25 in    
Wind  
Wind Speed 16 mph (North)    
Max Wind Speed 24 mph    
Max Gust Speed 37 mph    
Visibility 10 miles    
Events Snow    
Averages and records for this station are not official NWS values.
T = Trace of Precipitation, MM = Missing Value Source: NWS Daily Summary

Daily Weather History Graph

Daily Weather History Graph

Search for Another Location

Airport or City:

Trip Planner

Search our weather history database for the weather conditions in past years. The results will help you decide how hot, cold, wet, or windy it might be!

Date:

Astronomy

Oct. 31, 2014 Rise Set
Actual Time 7:28 AM CDT 5:47 PM CDT
Civil Twilight 6:58 AM CDT 6:17 PM CDT
Nautical Twilight 6:25 AM CDT 6:50 PM CDT
Astronomical Twilight 5:52 AM CDT 7:24 PM CDT
Moon 2:12 PM CDT (10/31) 12:06 AM CDT (10/31)
Length of Visible Light 11h 18m
Length of Day
10h 19m
First Quarter, 57% of the Moon is Illuminated
Oct 31
First Quarter
Nov 6
Full
Nov 14
Last Quarter
Nov 22
New
Nov 29
First Quarter

Hourly Weather History & Observations

Time (CDT) Temp. Windchill Dew Point Humidity Pressure Visibility Wind Dir Wind Speed Gust Speed Precip Events Conditions
12:15 AM 42.8 °F 36.6 °F 32.7 °F 68% 30.04 in 10.0 mi NW 11.5 mph 17.3 mph N/A   Overcast
12:35 AM 42.8 °F 34.5 °F 32.4 °F 67% 30.04 in 10.0 mi NW 18.4 mph 25.3 mph N/A   Overcast
12:55 AM 42.3 °F 35.5 °F 32.0 °F 67% 30.04 in 10.0 mi NW 12.7 mph 23.0 mph N/A   Overcast
1:15 AM 41.9 °F 33.4 °F 32.0 °F 68% 30.05 in 10.0 mi NW 18.4 mph 25.3 mph N/A   Overcast
1:35 AM 40.5 °F 31.5 °F 32.2 °F 72% 30.06 in 10.0 mi NW 18.4 mph 31.1 mph N/A   Mostly Cloudy
1:55 AM 39.4 °F 31.1 °F 31.3 °F 73% 30.06 in 10.0 mi NNW 15.0 mph 25.3 mph N/A   Overcast
2:15 AM 39.2 °F 30.2 °F 32.0 °F 75% 30.06 in 10.0 mi NW 17.3 mph 23.0 mph N/A   Overcast
2:35 AM 38.5 °F 29.2 °F 31.3 °F 75% 30.07 in 10.0 mi NNW 17.3 mph 26.5 mph N/A   Overcast
2:55 AM 37.4 °F 26.9 °F 30.6 °F 76% 30.07 in 10.0 mi NNW 20.7 mph 31.1 mph N/A   Overcast
3:15 AM 36.3 °F 25.8 °F 28.9 °F 75% 30.08 in 10.0 mi NW 19.6 mph 25.3 mph N/A   Overcast
3:55 AM 35.6 °F 25.5 °F 27.3 °F 72% 30.08 in 10.0 mi NW 17.3 mph 26.5 mph N/A   Overcast
4:15 AM 35.6 °F 26.2 °F 26.8 °F 70% 30.09 in 10.0 mi NW 15.0 mph 20.7 mph N/A   Overcast
4:35 AM 32.0 °F 21.6 °F 31.6 °F 99% 30.10 in 0.8 mi NNW 15.0 mph 24.2 mph 0.01 in Snow Snow
4:55 AM 32.0 °F 23.0 °F 32.0 °F 100% 30.10 in 2.0 mi NW 11.5 mph 17.3 mph 0.01 in Snow Light Snow
5:15 AM 32.0 °F 23.0 °F 32.0 °F 100% 30.11 in 1.5 mi NW 11.5 mph 20.7 mph 0.01 in Snow Light Snow
5:35 AM 32.0 °F 22.1 °F 32.0 °F 100% 30.12 in 4.0 mi NNW 13.8 mph 18.4 mph 0.01 in Snow Light Snow
5:55 AM 32.4 °F 21.7 °F 32.0 °F 99% 30.13 in 7.0 mi NNW 16.1 mph 21.9 mph 0.01 in   Overcast
6:15 AM 32.9 °F 22.4 °F 30.0 °F 89% 30.13 in 10.0 mi NNW 16.1 mph 27.6 mph N/A   Mostly Cloudy
6:35 AM 33.3 °F 22.8 °F 29.3 °F 85% 30.14 in 10.0 mi NNW 16.1 mph 26.5 mph N/A   Mostly Cloudy
6:55 AM 33.1 °F 21.2 °F 29.3 °F 86% 30.16 in 10.0 mi NNW 20.7 mph 28.8 mph N/A   Overcast
7:15 AM 33.1 °F 21.5 °F 28.9 °F 85% 30.16 in 10.0 mi NNW 19.6 mph 32.2 mph N/A   Overcast
7:35 AM 32.9 °F 21.6 °F 28.2 °F 83% 30.17 in 10.0 mi NNW 18.4 mph 24.2 mph N/A   Overcast
7:55 AM 32.5 °F 21.9 °F 27.7 °F 82% 30.19 in 10.0 mi NNW 16.1 mph 24.2 mph N/A   Overcast
8:15 AM 32.5 °F 22.3 °F 27.3 °F 81% 30.20 in 10.0 mi NNW 15.0 mph 28.8 mph N/A   Overcast
8:35 AM 32.5 °F 22.7 °F 26.8 °F 79% 30.21 in 10.0 mi NNW 13.8 mph 28.8 mph N/A   Overcast
8:55 AM 33.3 °F 22.1 °F 26.6 °F 77% 30.21 in 10.0 mi NNW 18.4 mph 31.1 mph N/A   Overcast
9:15 AM 32.9 °F 20.7 °F 26.2 °F 76% 30.22 in 10.0 mi NNW 21.9 mph 34.5 mph N/A   Overcast
9:35 AM 32.9 °F 21.6 °F 26.1 °F 76% 30.23 in 10.0 mi NNW 18.4 mph 29.9 mph N/A   Overcast
9:55 AM 32.9 °F 22.8 °F 25.7 °F 75% 30.24 in 10.0 mi NNW 15.0 mph 25.3 mph N/A   Overcast
10:15 AM 33.1 °F 20.9 °F 24.1 °F 70% 30.25 in 10.0 mi North 21.9 mph 32.2 mph N/A   Overcast
10:35 AM 33.3 °F 21.2 °F 24.4 °F 70% 30.26 in 10.0 mi North 21.9 mph 28.8 mph N/A   Overcast
10:55 AM 33.8 °F 23.5 °F 23.0 °F 65% 30.27 in 10.0 mi North 16.1 mph 36.8 mph N/A   Overcast
11:15 AM 34.5 °F 23.4 °F 24.6 °F 67% 30.27 in 10.0 mi North 19.6 mph 27.6 mph N/A   Overcast
11:35 AM 35.1 °F 23.0 °F 22.1 °F 59% 30.28 in 10.0 mi North 24.2 mph 32.2 mph N/A   Overcast
11:55 AM 35.2 °F 23.8 °F 22.1 °F 59% 30.28 in 10.0 mi North 21.9 mph 34.5 mph N/A   Overcast
12:15 PM 35.6 °F 23.7 °F 21.9 °F 58% 30.28 in 10.0 mi North 24.2 mph 35.7 mph N/A   Overcast
12:35 PM 35.1 °F 24.1 °F 23.4 °F 62% 30.28 in 10.0 mi NNW 19.6 mph 34.5 mph N/A   Overcast
12:55 PM 36.5 °F 25.7 °F 22.3 °F 56% 30.28 in 10.0 mi North 20.7 mph 27.6 mph N/A   Overcast
1:15 PM 36.5 °F 26.0 °F 21.7 °F 55% 30.29 in 10.0 mi North 19.6 mph 32.2 mph N/A   Overcast
1:35 PM 36.7 °F 25.7 °F 21.4 °F 54% 30.29 in 10.0 mi North 21.9 mph 26.5 mph N/A   Overcast
1:55 PM 36.9 °F 26.2 °F 21.7 °F 54% 30.30 in 10.0 mi North 20.7 mph 29.9 mph N/A   Overcast
2:15 PM 36.7 °F 26.0 °F 21.2 °F 54% 30.30 in 10.0 mi NNW 20.7 mph 28.8 mph N/A   Overcast
2:35 PM 37.4 °F 27.5 °F 20.5 °F 51% 30.30 in 10.0 mi North 18.4 mph 27.6 mph N/A   Overcast
2:55 PM 37.0 °F 28.5 °F 20.7 °F 52% 30.31 in 10.0 mi North 13.8 mph 29.9 mph N/A   Overcast
3:15 PM 37.4 °F 28.5 °F 19.6 °F 49% 30.31 in 10.0 mi North 15.0 mph 27.6 mph N/A   Overcast
3:35 PM 37.4 °F 28.2 °F 21.2 °F 52% 30.31 in 10.0 mi North 16.1 mph 25.3 mph N/A   Mostly Cloudy
3:55 PM 37.6 °F 26.6 °F 19.9 °F 49% 30.32 in 10.0 mi North 23.0 mph 28.8 mph N/A   Overcast
4:15 PM 37.4 °F 26.9 °F 18.3 °F 46% 30.32 in 10.0 mi North 20.7 mph 29.9 mph N/A   Mostly Cloudy
4:35 PM 36.3 °F 27.1 °F 18.3 °F 48% 30.34 in 10.0 mi North 15.0 mph 27.6 mph N/A   Scattered Clouds
4:55 PM 36.5 °F 26.7 °F 19.2 °F 50% 30.34 in 10.0 mi North 17.3 mph 25.3 mph N/A   Mostly Cloudy
5:15 PM 35.4 °F 25.3 °F 18.3 °F 50% 30.35 in 10.0 mi North 17.3 mph 24.2 mph N/A   Scattered Clouds
5:35 PM 35.1 °F 27.9 °F 18.7 °F 51% 30.36 in 10.0 mi North 9.2 mph 18.4 mph N/A   Scattered Clouds
5:55 PM 34.9 °F 26.2 °F 19.4 °F 53% 30.36 in 10.0 mi North 12.7 mph - N/A   Mostly Cloudy
6:15 PM 34.3 °F 25.5 °F 20.3 °F 57% 30.37 in 10.0 mi North 12.7 mph 18.4 mph N/A   Mostly Cloudy
6:35 PM 34.7 °F 26.4 °F 19.4 °F 54% 30.37 in 10.0 mi North 11.5 mph 18.4 mph N/A   Mostly Cloudy
6:55 PM 34.2 °F 26.2 °F 18.9 °F 54% 30.38 in 10.0 mi North 10.4 mph 17.3 mph N/A   Mostly Cloudy
7:15 PM 34.0 °F 27.2 °F 19.4 °F 55% 30.38 in 10.0 mi North 8.1 mph - N/A   Overcast
7:35 PM 34.2 °F 27.5 °F 19.4 °F 55% 30.38 in 10.0 mi North 8.1 mph - N/A   Mostly Cloudy
7:55 PM 33.8 °F 27.0 °F 20.5 °F 58% 30.39 in 10.0 mi North 8.1 mph - N/A   Mostly Cloudy
8:15 PM 34.0 °F 28.0 °F 21.2 °F 60% 30.39 in 10.0 mi North 6.9 mph - N/A   Overcast
8:35 PM 33.8 °F 28.6 °F 21.7 °F 61% 30.39 in 10.0 mi NNE 5.8 mph - N/A   Overcast
8:55 PM 33.4 °F 27.3 °F 20.3 °F 59% 30.39 in 10.0 mi NNE 6.9 mph - N/A   Overcast
9:15 PM 33.6 °F 24.6 °F 18.7 °F 54% 30.40 in 10.0 mi NNE 12.7 mph 18.4 mph N/A   Overcast
9:35 PM 33.4 °F 25.4 °F 18.5 °F 54% 30.41 in 10.0 mi North 10.4 mph 21.9 mph N/A   Overcast
9:55 PM 33.3 °F 24.6 °F 18.5 °F 55% 30.41 in 10.0 mi NNE 11.5 mph 16.1 mph N/A   Overcast
10:15 PM 33.1 °F 22.6 °F 18.7 °F 56% 30.41 in 10.0 mi NNE 16.1 mph 19.6 mph N/A   Overcast
10:35 PM 32.5 °F 23.7 °F 18.1 °F 55% 30.42 in 10.0 mi NNE 11.5 mph 23.0 mph N/A   Overcast
10:55 PM 32.4 °F 22.5 °F 18.7 °F 57% 30.42 in 10.0 mi NE 13.8 mph 19.6 mph N/A   Overcast
11:15 PM 32.9 °F 23.7 °F 19.6 °F 58% 30.42 in 10.0 mi NNE 12.7 mph 16.1 mph N/A   Overcast
11:35 PM 32.9 °F 24.1 °F 19.4 °F 58% 30.42 in 10.0 mi NNE 11.5 mph - N/A   Overcast
11:55 PM 32.5 °F 22.7 °F 18.9 °F 57% 30.42 in 10.0 mi NNE 13.8 mph 20.7 mph N/A   Overcast